createdAt,value
2024-03-16T00:00:27.130Z,10.05
2024-03-16T00:02:54.399Z,10.05
2024-03-16T00:05:21.809Z,10.06
2024-03-16T00:07:49.060Z,10.03
2024-03-16T00:10:16.833Z,10.02
2024-03-16T00:12:44.090Z,10.00
2024-03-16T00:15:11.478Z,9.99
2024-03-16T00:17:38.666Z,9.97
2024-03-16T00:20:08.038Z,9.99
2024-03-16T00:22:35.443Z,10.02
2024-03-16T00:25:03.034Z,10.01
2024-03-16T00:27:30.173Z,10.07
2024-03-16T00:29:57.406Z,10.10
2024-03-16T00:32:24.837Z,10.14
2024-03-16T00:34:51.941Z,10.14
2024-03-16T00:37:19.544Z,10.13
2024-03-16T00:39:46.590Z,10.13
2024-03-16T00:42:14.423Z,10.15
2024-03-16T00:44:41.792Z,10.19
2024-03-16T00:47:08.986Z,10.26
2024-03-16T00:49:36.159Z,10.24
2024-03-16T00:52:03.830Z,10.28
2024-03-16T00:54:31.378Z,10.32
2024-03-16T00:56:58.500Z,10.33
2024-03-16T00:59:25.655Z,10.37
2024-03-16T01:01:53.230Z,10.46
2024-03-16T01:04:20.601Z,10.49
2024-03-16T01:06:48.279Z,10.53
2024-03-16T01:09:15.230Z,10.50
2024-03-16T01:11:45.339Z,10.49
2024-03-16T01:14:12.469Z,10.49
2024-03-16T01:16:39.620Z,10.47
2024-03-16T01:19:06.771Z,10.40
2024-03-16T01:21:33.814Z,10.33
2024-03-16T01:24:01.493Z,10.25
2024-03-16T01:26:28.861Z,10.22
2024-03-16T01:28:56.540Z,10.19
2024-03-16T01:31:23.690Z,10.13
2024-03-16T01:33:51.250Z,10.06
2024-03-16T01:36:19.183Z,9.99
2024-03-16T01:38:46.237Z,9.97
2024-03-16T01:41:13.324Z,9.97
2024-03-16T01:43:40.486Z,9.95
2024-03-16T01:46:07.827Z,9.93
2024-03-16T01:48:34.837Z,9.92
2024-03-16T01:51:03.018Z,9.90
2024-03-16T01:53:31.445Z,9.89
2024-03-16T01:55:58.545Z,9.89
2024-03-16T01:58:26.083Z,9.91
2024-03-16T02:00:53.352Z,9.87
2024-03-16T02:03:20.724Z,9.84
2024-03-16T02:05:47.862Z,9.84
2024-03-16T02:08:14.979Z,9.84
2024-03-16T02:10:42.212Z,9.79
2024-03-16T02:13:10.549Z,9.78
2024-03-16T02:15:37.468Z,9.74
2024-03-16T02:18:04.694Z,9.69
2024-03-16T02:20:31.908Z,9.68
2024-03-16T02:22:59.011Z,9.67
2024-03-16T02:25:26.473Z,9.67
2024-03-16T02:27:53.624Z,9.68
2024-03-16T02:30:21.037Z,9.69
2024-03-16T02:32:48.196Z,9.72
2024-03-16T02:35:15.841Z,9.73
2024-03-16T02:37:43.021Z,9.73
2024-03-16T02:40:11.414Z,9.76
2024-03-16T02:42:38.533Z,9.74
2024-03-16T02:45:06.741Z,9.74
2024-03-16T02:47:34.280Z,9.74
2024-03-16T02:50:01.403Z,9.78
2024-03-16T02:52:28.573Z,9.78
2024-03-16T02:54:55.754Z,9.79
2024-03-16T02:57:22.952Z,9.72
2024-03-16T02:59:50.032Z,9.66
2024-03-16T03:02:17.337Z,9.61
2024-03-16T03:04:44.305Z,9.58
2024-03-16T03:07:11.874Z,9.55
2024-03-16T03:09:38.918Z,9.55
2024-03-16T03:12:06.375Z,9.55
2024-03-16T03:14:33.811Z,9.61
2024-03-16T03:17:00.914Z,9.60
2024-03-16T03:19:28.015Z,9.64
2024-03-16T03:21:56.756Z,9.66
2024-03-16T03:24:23.751Z,9.62
2024-03-16T03:26:51.390Z,9.61
2024-03-16T03:29:21.373Z,9.59
2024-03-16T03:31:48.154Z,9.59
2024-03-16T03:34:15.044Z,9.60
2024-03-16T03:36:42.095Z,9.60
2024-03-16T03:39:09.882Z,9.59
2024-03-16T03:41:36.949Z,9.59
2024-03-16T03:44:04.150Z,9.60
2024-03-16T03:46:31.014Z,9.57
2024-03-16T03:48:58.271Z,9.58
2024-03-16T03:51:25.987Z,9.61
2024-03-16T03:53:53.034Z,9.61
2024-03-16T03:56:20.027Z,9.70
2024-03-16T03:58:49.721Z,9.70
2024-03-16T04:01:17.025Z,9.75
2024-03-16T04:03:44.318Z,9.75
2024-03-16T04:06:11.992Z,9.75
2024-03-16T04:08:38.867Z,9.70
2024-03-16T04:11:07.132Z,9.69
2024-03-16T04:13:34.805Z,9.58
2024-03-16T04:16:01.779Z,9.55
2024-03-16T04:18:28.912Z,9.54
2024-03-16T04:20:56.288Z,9.57
2024-03-16T04:23:23.894Z,9.53
2024-03-16T04:25:50.876Z,9.54
2024-03-16T04:28:17.944Z,9.56
2024-03-16T04:30:45.617Z,9.59
2024-03-16T04:33:13.516Z,9.60
2024-03-16T04:35:40.442Z,9.59
2024-03-16T04:38:07.521Z,9.56
2024-03-16T04:40:35.106Z,9.56
2024-03-16T04:43:02.297Z,9.53
2024-03-16T04:45:29.769Z,9.51
2024-03-16T04:47:56.774Z,9.60
2024-03-16T04:50:24.330Z,9.59
2024-03-16T04:52:52.937Z,9.60
2024-03-16T04:55:20.368Z,9.60
2024-03-16T04:57:47.745Z,9.61
2024-03-16T05:00:15.992Z,9.62
2024-03-16T05:02:43.257Z,9.67
2024-03-16T05:05:10.864Z,9.60
2024-03-16T05:07:38.241Z,9.57
2024-03-16T05:10:06.323Z,9.55
2024-03-16T05:12:34.075Z,9.53
2024-03-16T05:15:01.092Z,9.55
2024-03-16T05:17:28.830Z,9.59
2024-03-16T05:19:55.944Z,9.61
2024-03-16T05:22:23.159Z,9.65
2024-03-16T05:24:50.265Z,9.70
2024-03-16T05:27:17.559Z,9.74
2024-03-16T05:29:44.614Z,9.76
2024-03-16T05:32:11.563Z,9.81
2024-03-16T05:34:38.550Z,9.80
2024-03-16T05:37:07.113Z,9.81
2024-03-16T05:39:35.033Z,9.85
2024-03-16T05:42:02.758Z,9.89
2024-03-16T05:44:29.823Z,9.96
2024-03-16T05:46:56.721Z,9.98
2024-03-16T05:49:26.791Z,9.97
2024-03-16T05:51:54.930Z,9.96
2024-03-16T05:54:22.228Z,9.94
2024-03-16T05:56:49.268Z,9.86
2024-03-16T05:59:16.970Z,9.86
2024-03-16T06:01:44.281Z,9.87
2024-03-16T06:04:12.648Z,9.85
2024-03-16T06:06:40.090Z,9.84
2024-03-16T06:09:09.625Z,9.85
2024-03-16T06:11:38.123Z,9.87
2024-03-16T06:14:04.926Z,9.86
2024-03-16T06:16:32.016Z,9.92
2024-03-16T06:18:59.674Z,9.96
2024-03-16T06:21:26.932Z,10.01
2024-03-16T06:23:53.969Z,10.05
2024-03-16T06:26:20.944Z,10.12
2024-03-16T06:28:47.741Z,10.19
2024-03-16T06:31:14.716Z,10.27
2024-03-16T06:33:41.841Z,10.35
2024-03-16T06:36:08.883Z,10.43
2024-03-16T06:38:35.780Z,10.48
2024-03-16T06:41:03.206Z,10.56
2024-03-16T06:43:31.064Z,10.67
2024-03-16T06:45:58.250Z,10.77
2024-03-16T06:48:25.379Z,10.80
2024-03-16T06:50:52.954Z,10.87
2024-03-16T06:53:19.823Z,10.92
2024-03-16T06:55:49.394Z,11.00
2024-03-16T06:58:16.613Z,11.09
2024-03-16T07:00:43.799Z,11.15
2024-03-16T07:03:11.267Z,11.16
2024-03-16T07:05:38.201Z,11.24
2024-03-16T07:08:07.993Z,11.31
2024-03-16T07:10:35.239Z,11.42
2024-03-16T07:13:02.406Z,11.49
2024-03-16T07:15:29.702Z,11.58
2024-03-16T07:17:58.316Z,11.68
2024-03-16T07:20:25.398Z,11.80
2024-03-16T07:22:52.330Z,11.84
2024-03-16T07:25:19.225Z,11.87
2024-03-16T07:27:46.428Z,11.94
2024-03-16T07:30:13.783Z,12.07
2024-03-16T07:32:40.727Z,12.13
2024-03-16T07:35:08.046Z,12.19
2024-03-16T07:37:35.055Z,12.25
2024-03-16T07:40:02.527Z,12.25
2024-03-16T07:42:30.073Z,12.30
2024-03-16T07:44:57.282Z,12.40
2024-03-16T07:47:27.148Z,12.50
2024-03-16T07:49:56.310Z,12.56
2024-03-16T07:52:23.357Z,12.71
2024-03-16T07:54:50.558Z,12.83
2024-03-16T07:57:17.511Z,12.92
2024-03-16T07:59:44.376Z,13.04
2024-03-16T08:02:11.891Z,13.22
2024-03-16T08:04:39.596Z,13.36
2024-03-16T08:07:07.730Z,13.52
2024-03-16T08:09:34.904Z,13.72
2024-03-16T08:12:02.005Z,13.93
2024-03-16T08:14:29.026Z,14.14
2024-03-16T08:16:56.217Z,14.29
2024-03-16T08:19:23.201Z,14.39
2024-03-16T08:21:51.025Z,14.59
2024-03-16T08:24:18.595Z,14.80
2024-03-16T08:26:45.909Z,14.95
2024-03-16T08:29:12.913Z,15.01
2024-03-16T08:31:40.271Z,14.99
2024-03-16T08:34:07.118Z,15.06
2024-03-16T08:36:36.798Z,15.08
2024-03-16T08:39:03.848Z,14.97
2024-03-16T08:41:33.098Z,14.88
2024-03-16T08:44:00.692Z,14.86
2024-03-16T08:46:28.347Z,14.77
2024-03-16T08:48:55.634Z,14.74
2024-03-16T08:51:22.743Z,14.74
2024-03-16T08:53:49.887Z,14.77
2024-03-16T08:56:17.273Z,14.90
2024-03-16T08:58:47.073Z,14.88
2024-03-16T09:01:14.700Z,14.96
2024-03-16T09:03:42.291Z,15.02
2024-03-16T09:06:10.145Z,15.22
2024-03-16T09:08:37.268Z,15.44
2024-03-16T09:11:05.555Z,15.59
2024-03-16T09:13:33.352Z,15.61
2024-03-16T09:16:00.554Z,15.71
2024-03-16T09:18:27.416Z,15.86
2024-03-16T09:20:54.327Z,15.95
2024-03-16T09:23:21.461Z,16.04
2024-03-16T09:25:50.922Z,16.07
2024-03-16T09:28:19.018Z,16.06
2024-03-16T09:30:46.619Z,16.08
2024-03-16T09:33:13.829Z,16.04
2024-03-16T09:35:41.909Z,16.03
2024-03-16T09:38:09.039Z,15.93
2024-03-16T09:40:36.186Z,15.79
